Aroda, Virginia
Current Conditions -  °F | °C
As of 12:35 AM on Wednesday 22 Oct 2014 (Local Time) from KOMH Reporting Station
Overcast Overcast  
Wind Chill: 54°   Ceiling: 6000
Heat Index: 54°   Visibility: 10mi
Dew Point: 48°   Wind: 3mph
Humidity: 82%   Direction: 310°NW
Pressure: 29.92"   Gusts: NA
Location:  38.33°N, 78.24°W
Report Text: KOMH 220435Z AUTO 31003KT 10SM OVC060 12/09 A2992 RMK AO2
Loading
Personal Weather Stations






























Interactive Weather Map New forecast layout! Learn more

10-Day Weather Forecast

Advertisements
Track Severe Weather on mobile